Time;durP1;ratioP1;P1;durP2;ratioP2;P2;SDS_P1;SDS_P2;PMS_P1;PMS_P2;Temp;Humidity;BMP_temperature;BMP_pressure;BME280_temperature;BME280_humidity;BME280_pressure;Samples;Min_cycle;Max_cycle;Signal;HPM_P1;HPM_P2
2021/04/05 00:00:29;;;;;;;6.82;4.07;;;;;;;5.02;54.99;97721.25;5070365;28;20243;-83
2021/04/05 00:02:56;;;;;;;6.95;3.85;;;;;;;5.08;54.60;97723.69;5073647;28;20322;-82
2021/04/05 00:05:25;;;;;;;7.18;4.05;;;;;;;5.06;54.61;97727.19;5069828;28;20229;-82
2021/04/05 00:07:51;;;;;;;7.65;3.83;;;;;;;5.01;54.90;97715.22;5069560;28;20266;-82
2021/04/05 00:12:24;;;;;;;7.97;3.88;;;;;;;5.01;54.67;97709.19;5100296;27;20539;-82
2021/04/05 00:14:50;;;;;;;7.53;3.80;;;;;;;5.01;54.72;97704.03;5099885;28;20228;-83
2021/04/05 00:17:16;;;;;;;7.60;4.60;;;;;;;5.01;54.72;97698.84;5099495;28;20236;-83
2021/04/05 00:19:43;;;;;;;7.18;3.75;;;;;;;4.99;54.56;97698.06;5099392;28;20265;-84
2021/04/05 00:22:09;;;;;;;8.43;3.90;;;;;;;4.98;54.99;97693.75;5099555;28;20732;-83
2021/04/05 00:24:35;;;;;;;6.40;3.97;;;;;;;4.99;55.07;97696.31;5099783;28;20236;-82
2021/04/05 00:27:02;;;;;;;6.15;3.47;;;;;;;4.96;55.11;97700.69;5099387;28;20801;-80
2021/04/05 00:29:29;;;;;;;5.93;4.10;;;;;;;4.98;54.83;97688.59;5100090;28;20220;-82
2021/04/05 00:31:55;;;;;;;9.20;4.00;;;;;;;5.03;55.21;97691.91;5099422;28;20248;-82
2021/04/05 00:34:21;;;;;;;5.78;3.75;;;;;;;5.09;54.74;97684.03;5099559;28;20269;-83
2021/04/05 00:36:47;;;;;;;8.73;3.88;;;;;;;5.11;54.63;97679.66;5099490;28;20247;-83
2021/04/05 00:39:13;;;;;;;7.63;4.07;;;;;;;5.09;54.85;97665.94;5099377;28;20251;-82
2021/04/05 00:41:39;;;;;;;7.22;4.20;;;;;;;5.14;54.53;97658.88;5099442;27;20626;-83
2021/04/05 00:44:06;;;;;;;8.85;3.70;;;;;;;5.19;54.53;97651.88;5099529;28;20305;-82
2021/04/05 00:46:33;;;;;;;7.40;4.10;;;;;;;5.13;53.98;97646.88;5099387;28;20236;-83
2021/04/05 00:48:59;;;;;;;9.75;4.70;;;;;;;5.11;54.20;97643.47;5099731;28;20212;-82
2021/04/05 00:51:26;;;;;;;15.68;8.32;;;;;;;5.08;54.22;97640.97;5099412;28;20259;-83
2021/04/05 00:53:53;;;;;;;12.50;6.72;;;;;;;5.01;54.34;97639.41;5099076;28;20232;-84
2021/04/05 00:56:21;;;;;;;14.45;7.40;;;;;;;4.99;54.57;97634.28;5099388;27;20255;-82
2021/04/05 00:58:48;;;;;;;9.90;5.63;;;;;;;4.97;54.59;97622.28;5099768;28;20708;-82
2021/04/05 01:01:18;;;;;;;9.33;4.90;;;;;;;4.92;54.87;97637.88;5098298;28;20243;-82
2021/04/05 01:03:45;;;;;;;6.32;4.38;;;;;;;4.83;55.09;97633.81;5099124;28;20220;-84
2021/04/05 01:06:13;;;;;;;11.05;5.03;;;;;;;4.76;54.91;97631.38;5099123;28;20256;-82
2021/04/05 01:08:40;;;;;;;7.25;4.35;;;;;;;4.80;55.14;97633.88;5099591;28;20272;-83
2021/04/05 01:11:07;;;;;;;6.30;4.00;;;;;;;4.77;55.59;97615.00;5098367;28;20270;-82
2021/04/05 01:13:33;;;;;;;8.65;4.60;;;;;;;4.81;54.82;97612.31;5099057;28;20709;-83
2021/04/05 01:15:59;;;;;;;9.20;4.90;;;;;;;4.86;54.99;97606.19;5098531;28;20236;-81
2021/04/05 01:18:27;;;;;;;6.65;4.05;;;;;;;4.87;54.89;97607.88;5098996;28;20861;-83
2021/04/05 01:20:54;;;;;;;11.45;4.90;;;;;;;4.88;54.86;97609.59;5098021;28;20315;-81
2021/04/05 01:23:21;;;;;;;6.70;4.13;;;;;;;4.86;54.76;97606.19;5088071;28;20305;-81
2021/04/05 01:25:48;;;;;;;10.77;4.88;;;;;;;4.88;55.12;97602.69;5084666;28;20290;-85
2021/04/05 01:28:14;;;;;;;4.38;3.75;;;;;;;4.91;55.47;97594.84;5085571;28;20209;-80
2021/04/05 01:30:42;;;;;;;5.95;4.18;;;;;;;4.98;55.08;97590.38;5083588;28;20247;-81
2021/04/05 01:33:10;;;;;;;7.70;4.18;;;;;;;4.99;54.38;97577.41;5085562;28;20212;-82
2021/04/05 01:35:41;;;;;;;8.75;4.68;;;;;;;4.94;54.77;97562.91;5084094;28;20873;-84
2021/04/05 01:38:08;;;;;;;8.27;4.63;;;;;;;4.94;54.76;97561.16;5083994;28;20220;-83
2021/04/05 01:40:37;;;;;;;9.05;4.35;;;;;;;4.86;54.70;97564.84;5084462;28;20866;-82
2021/04/05 01:43:03;;;;;;;9.00;4.18;;;;;;;4.75;54.79;97547.88;5085116;28;20213;-81
2021/04/05 01:45:29;;;;;;;8.57;4.65;;;;;;;4.74;55.25;97550.47;5084136;28;20535;-83
2021/04/05 01:47:56;;;;;;;8.75;4.60;;;;;;;4.81;54.92;97552.03;5085389;28;20227;-83
2021/04/05 01:50:22;;;;;;;5.55;4.13;;;;;;;4.85;55.40;97537.28;5084391;28;20212;-81
2021/04/05 01:52:48;;;;;;;8.35;5.07;;;;;;;4.77;55.32;97540.06;5085317;28;20220;-84
2021/04/05 01:55:15;;;;;;;7.55;4.30;;;;;;;4.68;55.01;97525.66;5084312;28;20236;-83
2021/04/05 01:57:42;;;;;;;11.18;5.28;;;;;;;4.66;55.46;97524.84;5085244;28;20223;-84
2021/04/05 02:00:10;;;;;;;8.38;5.30;;;;;;;4.65;55.80;97523.16;5083941;28;20213;-83
2021/04/05 02:02:37;;;;;;;10.40;5.30;;;;;;;4.68;55.76;97517.91;5085102;28;20226;-81
2021/04/05 02:05:06;;;;;;;9.77;5.25;;;;;;;4.71;55.72;97510.09;5083628;28;20964;-81
2021/04/05 02:07:32;;;;;;;10.23;5.13;;;;;;;4.78;55.53;97506.47;5084501;28;20217;-84
2021/04/05 02:09:58;;;;;;;8.63;4.93;;;;;;;4.80;55.57;97507.25;5084131;28;20273;-82
2021/04/05 02:12:24;;;;;;;8.50;4.82;;;;;;;4.79;55.44;97508.13;5082998;28;20229;-81
2021/04/05 02:14:51;;;;;;;8.15;5.22;;;;;;;4.84;55.13;97505.44;5084259;28;20240;-82
2021/04/05 02:17:18;;;;;;;7.57;5.22;;;;;;;4.87;54.93;97500.22;5083800;28;20752;-82
2021/04/05 02:19:45;;;;;;;10.13;5.07;;;;;;;4.93;54.58;97497.44;5084169;28;20231;-83
2021/04/05 02:22:11;;;;;;;8.23;4.72;;;;;;;4.98;54.71;97484.41;5083224;28;20236;-82
2021/04/05 02:24:40;;;;;;;9.60;5.68;;;;;;;5.03;54.78;97469.63;5083548;28;20233;-80
2021/04/05 02:27:08;;;;;;;8.25;4.93;;;;;;;4.96;54.24;97465.50;5083587;28;20237;-81
2021/04/05 02:29:34;;;;;;;9.60;5.15;;;;;;;4.93;54.47;97465.59;5084493;28;20759;-83
2021/04/05 02:32:00;;;;;;;9.98;6.22;;;;;;;4.87;54.62;97458.00;5083634;28;20240;-82
2021/04/05 02:34:27;;;;;;;9.20;5.63;;;;;;;4.75;54.92;97452.28;5083493;28;20236;-82
2021/04/05 02:36:53;;;;;;;9.35;5.50;;;;;;;4.66;55.26;97449.94;5083662;28;20258;-83
2021/04/05 02:39:19;;;;;;;9.35;5.53;;;;;;;4.59;54.94;97443.22;5084320;28;20221;-82
2021/04/05 02:41:46;;;;;;;8.38;5.82;;;;;;;4.56;55.29;97443.31;5082711;28;20233;-82
2021/04/05 02:44:12;;;;;;;9.55;5.90;;;;;;;4.49;55.70;97439.19;5083700;28;20241;-83
2021/04/05 02:46:40;;;;;;;10.50;5.40;;;;;;;4.47;55.88;97434.06;5083354;28;20232;-82
2021/04/05 02:49:10;;;;;;;9.60;5.03;;;;;;;4.54;55.63;97439.91;5084486;28;20314;-82
2021/04/05 02:51:40;;;;;;;11.38;5.93;;;;;;;4.63;55.48;97429.34;5083007;28;20241;-82
2021/04/05 02:54:07;;;;;;;9.43;5.57;;;;;;;4.68;55.59;97427.47;5083854;28;20240;-83
2021/04/05 02:56:36;;;;;;;12.00;5.97;;;;;;;4.72;55.47;97423.09;5083053;28;20224;-84
2021/04/05 02:59:03;;;;;;;12.15;5.45;;;;;;;4.75;55.09;97423.00;5084131;28;20925;-81
2021/04/05 03:01:29;;;;;;;10.32;5.40;;;;;;;4.81;55.17;97418.50;5082410;28;20743;-81
2021/04/05 03:03:56;;;;;;;10.38;5.00;;;;;;;4.79;54.89;97402.19;5083677;28;20270;-81
2021/04/05 03:06:23;;;;;;;10.60;5.30;;;;;;;4.80;54.72;97392.75;5082512;28;20240;-83
2021/04/05 03:08:49;;;;;;;10.65;5.75;;;;;;;4.80;55.04;97391.00;5083119;28;20224;-81
2021/04/05 03:11:18;;;;;;;12.77;5.60;;;;;;;4.77;54.93;97385.91;5082803;28;20244;-83
2021/04/05 03:13:44;;;;;;;9.35;5.57;;;;;;;4.71;55.09;97369.75;5083309;28;20246;-82
2021/04/05 03:16:15;;;;;;;10.85;5.43;;;;;;;4.66;55.06;97367.25;5082752;28;20240;-84
2021/04/05 03:18:43;;;;;;;8.98;5.20;;;;;;;4.69;55.60;97358.56;5082941;28;20213;-81
2021/04/05 03:21:10;;;;;;;11.55;6.00;;;;;;;4.70;55.22;97358.53;5082501;28;20721;-83
2021/04/05 03:23:37;;;;;;;8.32;5.55;;;;;;;4.70;55.61;97348.19;5081755;28;20228;-84
2021/04/05 03:26:03;;;;;;;8.95;5.40;;;;;;;4.67;55.55;97340.56;5082253;28;20236;-84
2021/04/05 03:28:30;;;;;;;10.63;5.72;;;;;;;4.64;55.43;97332.88;5082962;28;20208;-83
2021/04/05 03:31:00;;;;;;;11.27;5.93;;;;;;;4.44;55.84;97331.69;5082600;28;20354;-83
2021/04/05 03:33:32;;;;;;;8.20;5.10;;;;;;;4.31;56.03;97327.75;5082878;28;20662;-82
2021/04/05 03:36:01;;;;;;;7.63;5.30;;;;;;;4.28;55.94;97326.97;5082137;28;20233;-83
2021/04/05 03:38:27;;;;;;;11.68;5.85;;;;;;;4.21;56.29;97328.91;5082883;28;20227;-81
2021/04/05 03:40:56;;;;;;;8.85;5.63;;;;;;;4.04;56.63;97327.59;5082875;28;20228;-82
2021/04/05 03:43:28;;;;;;;7.50;5.25;;;;;;;3.95;56.91;97327.84;5082699;28;20262;-81
2021/04/05 03:45:58;;;;;;;15.38;6.78;;;;;;;3.96;57.36;97319.19;5082066;28;20235;-82
2021/04/05 03:48:30;;;;;;;10.85;5.97;;;;;;;3.94;57.36;97320.97;5082229;28;20889;-83
2021/04/05 03:51:03;;;;;;;14.65;6.45;;;;;;;4.02;57.27;97319.03;5082740;28;20249;-82
2021/04/05 03:53:34;;;;;;;10.70;5.78;;;;;;;4.13;56.91;97317.91;5082803;28;20209;-81
2021/04/05 03:56:06;;;;;;;11.25;5.85;;;;;;;4.14;57.02;97322.19;5082318;28;20232;-83
2021/04/05 03:58:33;;;;;;;10.20;6.10;;;;;;;4.16;57.15;97320.41;5082411;28;20201;-82
2021/04/05 04:01:03;;;;;;;12.25;5.82;;;;;;;4.16;57.20;97325.59;5081583;28;20591;-83
2021/04/05 04:03:36;;;;;;;8.88;5.93;;;;;;;4.14;57.06;97319.63;5082064;28;20319;-81
2021/04/05 04:06:05;;;;;;;11.02;5.97;;;;;;;4.21;56.63;97314.25;5082380;28;20232;-82
2021/04/05 04:08:36;;;;;;;11.27;6.30;;;;;;;4.17;56.58;97298.88;5081921;28;20216;-83
2021/04/05 04:11:06;;;;;;;11.68;6.25;;;;;;;4.15;56.71;97305.81;5081753;28;20713;-83
2021/04/05 04:13:35;;;;;;;8.52;5.90;;;;;;;4.17;57.17;97296.28;5082158;28;20685;-81
2021/04/05 04:16:01;;;;;;;11.57;6.40;;;;;;;4.26;56.85;97296.03;5081999;28;20232;-83
2021/04/05 04:18:27;;;;;;;9.40;5.85;;;;;;;4.32;57.24;97290.72;5082372;28;20240;-83
2021/04/05 04:20:53;;;;;;;12.18;6.53;;;;;;;4.35;56.88;97280.28;5081257;28;21019;-83
2021/04/05 04:23:19;;;;;;;8.43;5.50;;;;;;;4.39;57.14;97261.28;5082178;28;20872;-81
2021/04/05 04:25:45;;;;;;;13.38;5.78;;;;;;;4.48;56.99;97256.72;5081574;28;20247;-83
2021/04/05 04:28:15;;;;;;;10.00;5.47;;;;;;;4.47;56.80;97249.84;5081783;28;20220;-83
2021/04/05 04:30:42;;;;;;;10.55;5.80;;;;;;;4.39;57.17;97238.03;5082065;28;20232;-83
2021/04/05 04:33:09;;;;;;;8.45;5.20;;;;;;;4.30;57.40;97240.88;5082446;28;20237;-83
2021/04/05 04:35:37;;;;;;;8.73;5.50;;;;;;;4.30;57.29;97240.00;5081959;28;20236;-81
2021/04/05 04:38:04;;;;;;;10.60;5.90;;;;;;;4.32;57.39;97254.59;5082288;28;20215;-84
2021/04/05 04:40:32;;;;;;;10.05;5.70;;;;;;;4.31;57.01;97258.03;5081774;28;20240;-84
2021/04/05 04:43:00;;;;;;;9.50;5.95;;;;;;;4.26;56.83;97247.00;5082007;28;20216;-82
2021/04/05 04:45:27;;;;;;;11.07;6.20;;;;;;;4.29;56.85;97239.16;5081162;28;20247;-83
2021/04/05 04:47:55;;;;;;;10.15;6.15;;;;;;;4.35;57.38;97228.66;5082446;28;20219;-81
2021/04/05 04:50:22;;;;;;;10.68;5.70;;;;;;;4.38;56.79;97227.75;5081951;28;20217;-84
2021/04/05 04:52:48;;;;;;;9.60;5.80;;;;;;;4.43;57.16;97220.72;5082470;28;20298;-81
2021/04/05 04:55:15;;;;;;;11.05;6.22;;;;;;;4.44;56.84;97224.97;5081058;28;20229;-84
2021/04/05 04:57:42;;;;;;;9.13;5.70;;;;;;;4.39;57.27;97217.38;5083308;28;20225;-83
2021/04/05 05:00:08;;;;;;;11.88;6.35;;;;;;;4.36;57.38;97214.88;5084226;28;20209;-83
2021/04/05 05:02:36;;;;;;;8.77;5.53;;;;;;;4.39;57.56;97208.75;5085860;28;20216;-83
2021/04/05 05:05:03;;;;;;;12.13;5.82;;;;;;;4.44;57.56;97206.91;5084773;28;20660;-82
2021/04/05 05:07:30;;;;;;;10.82;5.97;;;;;;;4.42;57.76;97188.88;5085512;28;20217;-83
2021/04/05 05:09:56;;;;;;;10.07;6.53;;;;;;;4.33;57.71;97172.81;5085910;28;20213;-83
2021/04/05 05:12:22;;;;;;;10.85;6.00;;;;;;;4.33;57.82;97168.47;5085434;28;20778;-82
2021/04/05 05:14:48;;;;;;;11.57;5.57;;;;;;;4.39;57.75;97150.25;5085282;28;20236;-82
2021/04/05 05:17:15;;;;;;;10.40;5.78;;;;;;;4.40;58.03;97148.50;5084539;28;20264;-84
2021/04/05 05:19:43;;;;;;;11.98;6.07;;;;;;;4.36;57.76;97147.75;5085591;28;20220;-83
2021/04/05 05:22:10;;;;;;;8.40;5.55;;;;;;;4.34;58.03;97143.53;5084357;28;20236;-83
2021/04/05 05:24:36;;;;;;;13.20;6.97;;;;;;;4.24;58.50;97142.94;5084951;28;20297;-84
2021/04/05 05:27:03;;;;;;;10.05;5.72;;;;;;;4.25;58.51;97149.81;5084953;28;20236;-82
2021/04/05 05:29:29;;;;;;;11.90;6.07;;;;;;;4.33;58.36;97153.00;5085300;28;20216;-82
2021/04/05 05:31:56;;;;;;;9.52;5.80;;;;;;;4.36;58.26;97147.75;5084878;28;20232;-81
2021/04/05 05:34:24;;;;;;;9.20;6.22;;;;;;;4.46;58.13;97143.16;5084190;28;20232;-83
2021/04/05 05:36:50;;;;;;;9.48;5.70;;;;;;;4.54;58.33;97140.31;5084907;28;20970;-84
2021/04/05 05:39:18;;;;;;;12.77;6.20;;;;;;;4.61;58.59;97136.66;5084820;28;20216;-82
2021/04/05 05:41:52;;;;;;;11.50;5.88;;;;;;;4.63;58.69;97135.75;5084336;28;20233;-80
2021/04/05 05:44:23;;;;;;;12.40;6.13;;;;;;;4.68;58.57;97127.84;5084961;28;20239;-83
2021/04/05 05:46:52;;;;;;;12.70;6.00;;;;;;;4.74;58.39;97134.53;5084630;28;20240;-83
2021/04/05 05:49:27;;;;;;;10.48;5.75;;;;;;;4.82;59.01;97130.84;5085138;28;20266;-83
2021/04/05 05:52:09;;;;;;;10.05;6.15;;;;;;;4.88;59.08;97129.78;5084368;28;20232;-82
2021/04/05 05:55:12;;;;;;;12.90;6.18;;;;;;;4.89;59.15;97122.88;5084538;28;20296;-82
2021/04/05 05:57:41;;;;;;;10.98;6.03;;;;;;;4.98;58.55;97120.00;5048014;28;20236;-83
2021/04/05 06:00:11;;;;;;;9.98;5.90;;;;;;;5.08;58.58;97131.72;5084193;28;20209;-81
2021/04/05 06:02:48;;;;;;;8.55;5.65;;;;;;;5.13;58.98;97116.91;5084757;28;20277;-83
2021/04/05 06:05:23;;;;;;;9.20;5.28;;;;;;;5.18;58.80;97121.91;5083558;28;20236;-83
2021/04/05 06:07:56;;;;;;;10.57;5.78;;;;;;;5.28;58.55;97125.06;5084182;28;20703;-81
2021/04/05 06:10:31;;;;;;;7.60;5.80;;;;;;;5.33;58.78;97126.59;5084100;28;20221;-83
2021/04/05 06:13:06;;;;;;;10.65;5.85;;;;;;;5.30;58.86;97103.41;5084816;28;20224;-83
2021/04/05 06:15:36;;;;;;;9.88;5.40;;;;;;;5.39;58.46;97099.69;5083635;28;20245;-83
2021/04/05 06:18:07;;;;;;;7.50;5.38;;;;;;;5.45;58.93;97096.88;5084417;28;20215;-83
2021/04/05 06:20:37;;;;;;;10.52;5.60;;;;;;;5.46;58.87;97095.97;5082847;28;20244;-83
2021/04/05 06:23:14;;;;;;;8.10;5.18;;;;;;;5.54;58.94;97088.78;5084546;28;20209;-84
2021/04/05 06:25:50;;;;;;;10.88;5.30;;;;;;;5.65;58.73;97084.97;5081884;28;20256;-81
2021/04/05 06:28:25;;;;;;;9.90;5.25;;;;;;;5.74;58.57;97085.47;5084103;28;20216;-83
2021/04/05 06:30:59;;;;;;;10.48;5.88;;;;;;;5.85;58.60;97086.84;5083459;28;20232;-83
2021/04/05 06:33:30;;;;;;;10.93;6.78;;;;;;;5.90;58.56;97083.19;5084006;28;20710;-81
2021/04/05 06:36:12;;;;;;;9.27;5.93;;;;;;;5.95;58.78;97083.00;5083561;28;20274;-82
2021/04/05 06:38:42;;;;;;;9.75;5.47;;;;;;;6.05;58.69;97078.38;5082518;28;20220;-83
2021/04/05 06:41:23;;;;;;;10.30;5.38;;;;;;;6.14;58.57;97068.50;5083043;28;20608;-84
2021/04/05 06:44:00;;;;;;;11.80;5.63;;;;;;;6.24;58.88;97065.56;5082892;28;20604;-84
2021/04/05 06:46:55;;;;;;;7.32;4.75;;;;;;;6.33;58.52;97050.50;5083198;28;20240;-82
2021/04/05 06:49:40;;;;;;;12.38;5.38;;;;;;;6.49;58.89;97050.75;5080351;28;20599;-83
2021/04/05 06:52:11;;;;;;;13.05;5.82;;;;;;;6.61;58.41;97036.44;5083004;28;20251;-84
2021/04/05 06:55:16;;;;;;;13.27;5.22;;;;;;;6.80;58.36;97038.28;5083572;28;20233;-84
2021/04/05 06:57:55;;;;;;;9.75;5.70;;;;;;;6.92;58.22;97032.59;5083541;28;20760;-83
2021/04/05 07:00:23;;;;;;;10.65;4.97;;;;;;;7.05;58.37;97036.34;5082945;28;20733;-84
2021/04/05 07:03:23;;;;;;;10.43;4.90;;;;;;;7.18;58.46;97025.47;5083218;28;20213;-82
2021/04/05 07:06:01;;;;;;;14.95;4.60;;;;;;;7.30;58.59;97017.16;5082868;28;20271;-80
2021/04/05 07:08:34;;;;;;;13.98;5.55;;;;;;;7.45;57.73;97013.91;5083104;28;20307;-84
2021/04/05 07:11:09;;;;;;;11.30;5.40;;;;;;;7.60;57.60;97020.16;5082602;28;20237;-82
2021/04/05 07:13:44;;;;;;;9.07;5.07;;;;;;;7.73;57.82;97012.66;5083443;28;20219;-84
2021/04/05 07:16:15;;;;;;;11.63;5.38;;;;;;;7.90;57.05;96999.75;5082848;28;20231;-84
2021/04/05 07:18:48;;;;;;;12.02;4.88;;;;;;;8.08;57.30;97002.41;5082843;28;20204;-82
2021/04/05 07:21:29;;;;;;;9.18;4.78;;;;;;;8.27;56.91;97000.63;5081881;28;20229;-83
2021/04/05 07:24:14;;;;;;;11.63;5.35;;;;;;;8.40;56.34;96987.03;5082638;28;20684;-83
2021/04/05 07:26:44;;;;;;;10.82;5.10;;;;;;;8.57;55.52;96996.66;5081695;28;20976;-84
2021/04/05 07:29:13;;;;;;;10.13;4.70;;;;;;;8.59;55.78;96993.06;5083323;28;20281;-84
2021/04/05 07:31:46;;;;;;;9.43;4.72;;;;;;;8.67;55.60;96990.94;5082243;28;20236;-83
2021/04/05 07:34:28;;;;;;;14.52;5.43;;;;;;;8.88;54.88;96988.19;5082579;28;20282;-83
2021/04/05 07:37:00;;;;;;;10.95;5.25;;;;;;;9.03;55.07;96982.19;5082638;28;20612;-83
2021/04/05 07:39:32;;;;;;;13.60;5.35;;;;;;;9.10;54.76;96976.66;5082702;28;20397;-83
2021/04/05 07:42:05;;;;;;;12.60;5.57;;;;;;;9.20;54.16;96972.69;5082259;28;20742;-84
2021/04/05 07:44:46;;;;;;;11.57;5.07;;;;;;;9.28;54.16;96970.50;5082730;28;20624;-83
2021/04/05 07:47:19;;;;;;;12.05;5.18;;;;;;;9.39;53.55;96970.81;5082025;28;20254;-82
2021/04/05 07:49:49;;;;;;;11.00;5.00;;;;;;;9.43;53.54;96961.91;5082721;28;20212;-81
2021/04/05 07:52:21;;;;;;;10.60;4.97;;;;;;;9.55;53.49;96957.78;5081770;28;20266;-80
2021/04/05 07:54:49;;;;;;;10.13;5.05;;;;;;;9.62;53.17;96947.91;5082630;28;20240;-81
2021/04/05 07:57:23;;;;;;;10.43;5.13;;;;;;;9.69;53.16;96946.66;5082097;28;20239;-80
2021/04/05 07:59:54;;;;;;;12.82;5.57;;;;;;;9.71;53.17;96951.78;5082457;28;20208;-82
2021/04/05 08:02:33;;;;;;;10.52;4.53;;;;;;;9.82;52.41;96950.25;5081643;28;20232;-79
2021/04/05 08:05:06;;;;;;;12.30;4.78;;;;;;;9.82;51.92;96945.06;5082111;28;20236;-79
2021/04/05 08:07:35;;;;;;;9.45;4.65;;;;;;;9.77;51.66;96941.84;5082075;28;20273;-79
2021/04/05 08:10:08;;;;;;;9.35;5.00;;;;;;;9.77;51.39;96947.06;5082553;28;20217;-82
2021/04/05 08:12:43;;;;;;;8.20;3.63;;;;;;;9.79;50.51;96939.19;5081823;28;20239;-82
2021/04/05 08:15:21;;;;;;;9.38;3.65;;;;;;;9.78;50.96;96964.38;5081692;28;20236;-81
2021/04/05 08:18:01;;;;;;;6.90;3.85;;;;;;;9.77;50.51;96944.47;5082109;28;20302;-82
2021/04/05 08:20:31;;;;;;;7.85;4.35;;;;;;;9.86;50.23;96937.09;5081693;28;20663;-81
2021/04/05 08:23:00;;;;;;;8.45;4.43;;;;;;;9.84;50.53;96943.19;5082263;28;20212;-81
2021/04/05 08:25:32;;;;;;;11.82;5.30;;;;;;;9.86;50.65;96944.91;5081548;28;20237;-82
2021/04/05 08:28:06;;;;;;;8.85;3.55;;;;;;;9.82;49.68;96945.06;5082410;28;20738;-81
2021/04/05 08:30:37;;;;;;;6.63;3.40;;;;;;;9.90;49.27;96938.59;5081277;28;20255;-82
2021/04/05 08:33:12;;;;;;;9.73;4.20;;;;;;;9.84;48.27;96927.56;5083918;28;20221;-81
2021/04/05 08:35:43;;;;;;;7.55;4.45;;;;;;;9.75;47.69;96925.47;5085683;28;20243;-79
2021/04/05 08:38:23;;;;;;;10.45;4.72;;;;;;;9.80;47.80;96931.28;5086238;28;20213;-81
2021/04/05 08:40:54;;;;;;;6.55;3.63;;;;;;;9.75;47.19;96938.50;5086081;28;20239;-79
2021/04/05 08:43:27;;;;;;;8.35;4.00;;;;;;;9.66;47.46;96944.22;5085823;28;21216;-80
2021/04/05 08:46:00;;;;;;;9.40;4.40;;;;;;;9.63;47.11;96944.38;5085951;28;20247;-79
2021/04/05 08:48:28;;;;;;;5.93;3.60;;;;;;;9.60;47.46;96928.94;5085911;28;20220;-81
2021/04/05 08:50:59;;;;;;;10.70;4.57;;;;;;;9.67;47.40;96939.84;5079785;28;20228;-79
2021/04/05 08:53:28;;;;;;;8.30;4.47;;;;;;;9.76;47.66;96921.97;5085060;28;20208;-80
2021/04/05 08:55:57;;;;;;;11.38;5.18;;;;;;;9.82;47.82;96908.59;5085701;28;20816;-82
2021/04/05 08:58:27;;;;;;;11.73;5.35;;;;;;;9.86;47.59;96911.88;5085380;28;20840;-80
2021/04/05 09:00:57;;;;;;;11.73;5.18;;;;;;;9.81;47.68;96919.97;5084999;28;20317;-81
2021/04/05 09:03:27;;;;;;;11.02;5.07;;;;;;;9.83;47.19;96914.63;5086070;28;20212;-81
2021/04/05 09:05:54;;;;;;;12.95;5.85;;;;;;;9.88;46.92;96897.00;5085422;28;20233;-79
2021/04/05 09:08:21;;;;;;;12.88;6.75;;;;;;;9.92;46.99;96905.47;5085476;28;20216;-79
2021/04/05 09:10:50;;;;;;;9.32;4.68;;;;;;;9.83;46.50;96899.88;5085209;28;20318;-79
2021/04/05 09:13:23;;;;;;;12.13;5.05;;;;;;;9.89;46.59;96887.41;5085757;28;20757;-82
2021/04/05 09:16:28;;;;;;;12.38;5.43;;;;;;;9.97;46.23;96898.25;5084934;28;20237;-81
2021/04/05 09:19:44;;;;;;;11.77;5.45;;;;;;;9.87;46.39;96887.53;5085499;28;20211;-79
2021/04/05 09:23:01;;;;;;;11.48;6.13;;;;;;;9.81;46.63;96880.03;5084429;28;20237;-79
2021/04/05 09:25:57;;;;;;;20.58;7.05;;;;;;;9.91;47.03;96869.97;5021678;28;20898;-80
2021/04/05 09:28:51;;;;;;;14.50;5.70;;;;;;;9.96;46.45;96873.13;5022448;28;20241;-78
2021/04/05 09:31:31;;;;;;;16.20;7.35;;;;;;;9.86;46.46;96888.44;5073649;28;20252;-79
2021/04/05 09:34:42;;;;;;;12.68;6.60;;;;;;;9.90;46.62;96863.06;5084958;28;20209;-81
2021/04/05 09:37:40;;;;;;;12.95;5.60;;;;;;;9.87;47.16;96863.22;5084786;28;20343;-81
2021/04/05 09:40:22;;;;;;;10.18;4.72;;;;;;;9.69;47.09;96850.31;5079563;28;20217;-81
2021/04/05 09:43:14;;;;;;;14.75;7.90;;;;;;;9.84;47.15;96854.66;5084902;28;20209;-81
2021/04/05 09:45:43;;;;;;;10.30;5.38;;;;;;;9.79;46.98;96866.25;5083850;28;20236;-84
2021/04/05 09:48:39;;;;;;;17.63;7.68;;;;;;;9.75;47.29;96855.16;5085219;28;20239;-81
2021/04/05 09:51:34;;;;;;;11.40;6.10;;;;;;;9.74;47.39;96848.31;5084211;28;20236;-83
2021/04/05 09:54:06;;;;;;;13.05;7.75;;;;;;;9.85;47.00;96834.66;5083510;28;21725;-81
2021/04/05 09:56:35;;;;;;;13.82;7.63;;;;;;;10.00;46.64;96835.56;5084424;28;20739;-78
2021/04/05 09:59:07;;;;;;;14.77;7.03;;;;;;;10.01;46.98;96829.41;5084381;28;20209;-79
2021/04/05 10:01:35;;;;;;;17.85;7.72;;;;;;;10.06;46.59;96824.78;5084309;28;20232;-79
2021/04/05 10:04:04;;;;;;;11.95;6.68;;;;;;;10.09;46.60;96828.97;5083644;28;20285;-78
2021/04/05 10:06:32;;;;;;;20.88;8.88;;;;;;;10.12;46.54;96827.03;5083803;28;20232;-77
2021/04/05 10:08:58;;;;;;;18.30;8.63;;;;;;;10.25;46.34;96810.69;5084350;28;20677;-78
2021/04/05 10:11:27;;;;;;;19.48;7.90;;;;;;;10.25;46.42;96816.72;5083761;28;20245;-77
2021/04/05 10:13:56;;;;;;;14.40;7.63;;;;;;;10.32;46.62;96807.66;5084426;28;20708;-79
2021/04/05 10:16:23;;;;;;;16.83;8.35;;;;;;;10.39;46.45;96808.16;5084165;28;20241;-79
2021/04/05 10:18:51;;;;;;;16.60;7.30;;;;;;;10.45;46.10;96799.94;5083909;28;20677;-76
2021/04/05 10:21:20;;;;;;;10.15;5.65;;;;;;;10.42;46.61;96800.13;5083428;28;20232;-79
2021/04/05 10:23:48;;;;;;;9.82;5.22;;;;;;;10.34;47.05;96804.97;5083967;28;20433;-77
2021/04/05 10:26:15;;;;;;;17.83;8.50;;;;;;;10.43;47.16;96800.97;5082101;28;20247;-77
2021/04/05 10:28:43;;;;;;;17.63;8.63;;;;;;;10.43;47.37;96822.66;5084263;28;20321;-77
2021/04/05 10:31:14;;;;;;;18.45;8.85;;;;;;;10.43;47.82;96798.38;5083536;28;20285;-78
2021/04/05 10:33:43;;;;;;;14.07;6.28;;;;;;;10.46;47.67;96806.84;5083461;28;20231;-78
2021/04/05 10:36:12;;;;;;;19.58;9.43;;;;;;;10.43;48.36;96796.59;5083830;28;20236;-77
2021/04/05 10:38:39;;;;;;;16.88;9.40;;;;;;;10.44;48.31;96805.25;5084059;28;20795;-77
2021/04/05 10:41:06;;;;;;;12.30;6.93;;;;;;;10.35;48.60;96799.66;5082027;28;20236;-76
2021/04/05 10:43:36;;;;;;;18.33;8.88;;;;;;;10.34;48.90;96795.38;5083439;28;20620;-77
2021/04/05 10:46:06;;;;;;;17.98;9.48;;;;;;;10.36;48.96;96795.28;5082732;28;20236;-77
2021/04/05 10:48:39;;;;;;;14.02;7.72;;;;;;;10.22;49.34;96796.91;5084136;28;20212;-79
2021/04/05 10:51:10;;;;;;;13.70;8.82;;;;;;;10.28;49.06;96794.88;5083164;28;20233;-78
2021/04/05 10:53:41;;;;;;;17.10;7.72;;;;;;;10.18;49.33;96787.63;5084066;28;20266;-76
2021/04/05 10:56:09;;;;;;;9.82;6.22;;;;;;;10.19;49.38;96785.84;5082438;28;20232;-77
2021/04/05 10:58:42;;;;;;;15.48;7.38;;;;;;;10.14;49.75;96798.28;5083179;28;20209;-78
2021/04/05 11:01:09;;;;;;;19.88;8.77;;;;;;;10.18;49.45;96803.25;5082712;28;21068;-77
2021/04/05 11:03:38;;;;;;;13.23;6.68;;;;;;;10.20;49.34;96779.69;5083243;28;20220;-77
2021/04/05 11:06:07;;;;;;;14.40;6.63;;;;;;;10.15;49.60;96774.75;5082205;28;20241;-77
2021/04/05 11:08:34;;;;;;;17.05;8.95;;;;;;;10.17;49.71;96783.31;5083351;28;20216;-76
2021/04/05 11:11:02;;;;;;;16.17;7.72;;;;;;;10.16;50.07;96779.06;5082502;28;20229;-79
2021/04/05 11:13:29;;;;;;;14.82;8.20;;;;;;;10.21;49.82;96769.16;5083380;28;20314;-77
2021/04/05 11:15:57;;;;;;;14.50;8.52;;;;;;;10.27;49.44;96769.75;5082737;28;20245;-79
2021/04/05 11:18:25;;;;;;;16.42;8.23;;;;;;;10.19;49.77;96755.41;5083738;28;20217;-77
2021/04/05 11:20:56;;;;;;;15.38;8.38;;;;;;;10.18;50.25;96747.66;5081682;28;20236;-79
2021/04/05 11:23:24;;;;;;;14.85;7.10;;;;;;;10.27;49.73;96746.28;5083552;28;20212;-79
2021/04/05 11:25:52;;;;;;;15.88;7.47;;;;;;;10.21;49.52;96744.88;5082605;28;20236;-76
2021/04/05 11:28:23;;;;;;;9.25;5.22;;;;;;;10.18;50.10;96752.88;5083270;28;20308;-77
2021/04/05 11:30:51;;;;;;;16.67;7.88;;;;;;;10.28;50.13;96737.56;5082465;28;20236;-76
2021/04/05 11:33:26;;;;;;;13.85;6.63;;;;;;;10.17;50.33;96746.84;5078287;28;20267;-79
2021/04/05 11:35:54;;;;;;;18.00;8.75;;;;;;;10.28;50.28;96727.13;5080641;28;20235;-78
2021/04/05 11:38:21;;;;;;;16.85;8.27;;;;;;;10.45;49.90;96744.38;5082699;28;20213;-76
2021/04/05 11:40:48;;;;;;;15.85;8.02;;;;;;;10.42;50.04;96727.13;5082450;28;20241;-77
2021/04/05 11:43:17;;;;;;;15.85;8.68;;;;;;;10.38;50.58;96728.25;5082853;28;20630;-77
2021/04/05 11:45:48;;;;;;;14.60;8.35;;;;;;;10.47;50.38;96748.56;5081494;28;20252;-76
2021/04/05 11:48:17;;;;;;;15.60;8.00;;;;;;;10.32;50.35;96724.25;5082832;28;20254;-79
2021/04/05 11:50:43;;;;;;;18.40;8.63;;;;;;;10.37;50.71;96737.03;5081315;28;20232;-78
2021/04/05 11:53:16;;;;;;;16.33;8.45;;;;;;;10.33;50.72;96741.59;5082377;28;20732;-78
2021/04/05 11:55:42;;;;;;;14.18;8.13;;;;;;;10.33;50.81;96746.81;5082169;28;20251;-79